Time;durP1;ratioP1;P1;durP2;ratioP2;P2;SDS_P1;SDS_P2;PMS_P1;PMS_P2;Temp;Humidity;BMP_temperature;BMP_pressure;BME280_temperature;BME280_humidity;BME280_pressure;Samples;Min_cycle;Max_cycle;Signal;HPM_P1;HPM_P2
2021/08/12 00:01:17;;;;;;;47.10;26.92;;;13.50;99.90;;;;;;5091860;28;20023;-82
2021/08/12 00:03:43;;;;;;;37.10;24.50;;;13.40;99.90;;;;;;5091641;28;20114;-82
2021/08/12 00:06:09;;;;;;;42.78;26.95;;;13.50;99.90;;;;;;5091149;28;20106;-82
2021/08/12 00:08:34;;;;;;;40.55;25.30;;;13.30;99.90;;;;;;5092662;28;20071;-82
2021/08/12 00:11:00;;;;;;;42.60;26.52;;;13.40;99.90;;;;;;5091665;28;20521;-82
2021/08/12 00:13:25;;;;;;;38.63;27.23;;;13.10;99.90;;;;;;5091714;28;20028;-82
2021/08/12 00:15:51;;;;;;;40.78;24.83;;;13.00;99.90;;;;;;5091218;28;20165;-82
2021/08/12 00:18:17;;;;;;;31.45;21.67;;;13.00;99.90;;;;;;5092544;28;20028;-81
2021/08/12 00:20:43;;;;;;;44.22;29.33;;;13.00;99.90;;;;;;5091422;28;20028;-82
2021/08/12 00:23:09;;;;;;;37.33;23.80;;;12.90;99.90;;;;;;5091677;28;20029;-81
2021/08/12 00:25:34;;;;;;;46.55;29.88;;;12.80;99.90;;;;;;5091277;28;20031;-82
2021/08/12 00:28:00;;;;;;;45.58;26.45;;;12.90;99.90;;;;;;5091410;28;20027;-82
2021/08/12 00:30:26;;;;;;;44.72;28.58;;;12.90;99.90;;;;;;5091073;28;20051;-81
2021/08/12 00:32:52;;;;;;;42.70;28.13;;;12.90;99.90;;;;;;5092628;28;20028;-82
2021/08/12 00:35:17;;;;;;;42.60;26.25;;;12.90;99.90;;;;;;5090881;28;20039;-82
2021/08/12 00:37:43;;;;;;;39.35;26.25;;;12.90;99.90;;;;;;5091236;28;20124;-82
2021/08/12 00:40:09;;;;;;;47.15;28.55;;;12.90;99.90;;;;;;5092047;28;20028;-82
2021/08/12 00:42:35;;;;;;;42.55;26.58;;;12.80;99.90;;;;;;5091188;28;20036;-82
2021/08/12 00:45:00;;;;;;;36.92;24.80;;;12.80;99.90;;;;;;5090823;28;20023;-82
2021/08/12 00:47:27;;;;;;;33.38;24.10;;;12.80;99.90;;;;;;5091146;28;20020;-81
2021/08/12 00:49:53;;;;;;;35.67;23.88;;;12.70;99.90;;;;;;5090827;28;20036;-82
2021/08/12 00:52:20;;;;;;;37.63;25.05;;;12.70;99.90;;;;;;5092280;28;20028;-82
2021/08/12 00:54:45;;;;;;;30.00;20.58;;;12.70;99.90;;;;;;5091920;28;20028;-82
2021/08/12 00:57:12;;;;;;;36.00;24.10;;;12.60;99.90;;;;;;5090996;28;20032;-82
2021/08/12 00:59:39;;;;;;;49.63;29.88;;;12.70;99.90;;;;;;5091601;28;21913;-81
2021/08/12 01:02:09;;;;;;;42.92;29.75;;;12.70;99.90;;;;;;5090877;28;20032;-82
2021/08/12 01:04:34;;;;;;;54.45;31.77;;;12.70;99.90;;;;;;5090682;28;20119;-83
2021/08/12 01:07:09;;;;;;;67.20;37.42;;;12.70;99.90;;;;;;5090822;28;20055;-82
2021/08/12 01:09:42;;;;;;;59.50;35.90;;;12.70;99.90;;;;;;5090852;28;20111;-82
2021/08/12 01:12:17;;;;;;;49.27;30.20;;;12.80;99.90;;;;;;5070527;28;20025;-81
2021/08/12 01:15:22;;;;;;;73.45;42.13;;;12.80;99.90;;;;;;5070279;28;20028;-82
2021/08/12 01:17:57;;;;;;;71.75;40.25;;;12.90;99.90;;;;;;4989943;28;20113;-82
2021/08/12 01:20:54;;;;;;;75.93;40.85;;;13.00;99.90;;;;;;5065298;28;20072;-82
2021/08/12 01:23:22;;;;;;;74.57;41.38;;;13.10;99.90;;;;;;5091502;28;20056;-82
2021/08/12 01:25:51;;;;;;;70.00;37.92;;;13.00;99.90;;;;;;5090262;28;20028;-82
2021/08/12 01:28:20;;;;;;;77.90;43.30;;;13.10;99.90;;;;;;5090638;28;20492;-82
2021/08/12 01:31:05;;;;;;;99.60;49.75;;;13.10;99.90;;;;;;5089996;28;20116;-82
2021/08/12 01:33:53;;;;;;;89.65;46.65;;;13.30;99.90;;;;;;5090441;28;20492;-82
2021/08/12 01:36:21;;;;;;;100.03;51.70;;;13.40;99.90;;;;;;5090466;28;20070;-82
2021/08/12 01:38:50;;;;;;;88.70;46.63;;;13.40;99.90;;;;;;5090131;28;20511;-81
2021/08/12 01:41:17;;;;;;;74.97;40.10;;;13.40;99.90;;;;;;5089780;28;20043;-81
2021/08/12 01:43:42;;;;;;;68.35;36.33;;;13.50;99.90;;;;;;5091487;28;20024;-81
2021/08/12 01:46:09;;;;;;;59.72;33.72;;;13.30;99.90;;;;;;5091631;28;20021;-81
2021/08/12 01:48:36;;;;;;;59.25;32.67;;;13.30;99.90;;;;;;5090399;28;20032;-81
2021/08/12 01:51:03;;;;;;;55.33;31.60;;;13.20;99.90;;;;;;5090088;28;20051;-81
2021/08/12 01:53:31;;;;;;;52.13;29.55;;;13.20;99.90;;;;;;5090270;28;20028;-82
2021/08/12 01:55:58;;;;;;;54.28;32.22;;;13.30;99.90;;;;;;5091242;28;20020;-82
2021/08/12 01:58:26;;;;;;;54.17;30.10;;;13.00;99.90;;;;;;5090292;28;20032;-81
2021/08/12 02:00:54;;;;;;;56.78;33.05;;;13.10;99.90;;;;;;5089601;28;20032;-81
2021/08/12 02:03:21;;;;;;;65.13;35.53;;;13.00;99.90;;;;;;5090347;28;20025;-82
2021/08/12 02:05:49;;;;;;;46.58;28.02;;;13.00;99.90;;;;;;5089893;28;20016;-82
2021/08/12 02:08:19;;;;;;;41.67;25.38;;;13.00;99.90;;;;;;5090080;28;20112;-82
2021/08/12 02:10:45;;;;;;;45.80;24.45;;;12.90;99.90;;;;;;5090011;28;20021;-81
2021/08/12 02:13:11;;;;;;;42.75;25.33;;;12.90;99.90;;;;;;5090362;28;20035;-82
2021/08/12 02:15:37;;;;;;;41.83;24.98;;;12.90;99.90;;;;;;5089860;28;20029;-82
2021/08/12 02:18:04;;;;;;;35.22;23.15;;;12.90;99.90;;;;;;5090276;28;20059;-82
2021/08/12 02:20:30;;;;;;;36.10;23.42;;;12.90;99.90;;;;;;5089770;28;20488;-82
2021/08/12 02:23:15;;;;;;;35.83;23.27;;;12.90;99.90;;;;;;5091260;28;20411;-81
2021/08/12 02:25:55;;;;;;;35.03;22.02;;;12.80;99.90;;;;;;5089781;28;20016;-82
2021/08/12 02:28:21;;;;;;;42.25;23.85;;;12.70;99.90;;;;;;5090101;28;20526;-81
2021/08/12 02:30:50;;;;;;;32.92;21.42;;;12.70;99.90;;;;;;5092174;28;20028;-82
2021/08/12 02:33:20;;;;;;;34.55;22.48;;;12.60;99.90;;;;;;5093571;28;20096;-82
2021/08/12 02:35:46;;;;;;;39.30;24.35;;;12.50;99.90;;;;;;5093170;28;20043;-81
2021/08/12 02:38:14;;;;;;;42.40;25.20;;;12.60;99.90;;;;;;5093537;28;20032;-81
2021/08/12 02:40:41;;;;;;;37.65;25.05;;;12.50;99.90;;;;;;5093387;28;20020;-82
2021/08/12 02:43:08;;;;;;;38.60;24.10;;;12.50;99.90;;;;;;5093224;28;20030;-81
2021/08/12 02:45:35;;;;;;;33.95;23.77;;;12.50;99.90;;;;;;5094440;28;20035;-81
2021/08/12 02:48:02;;;;;;;41.90;25.35;;;12.40;99.90;;;;;;5094505;28;20044;-81
2021/08/12 02:50:28;;;;;;;42.13;27.83;;;12.50;99.90;;;;;;5093235;28;20024;-81
2021/08/12 02:52:55;;;;;;;60.25;34.95;;;12.40;99.90;;;;;;5094096;28;20030;-81
2021/08/12 02:55:21;;;;;;;57.22;32.30;;;12.40;99.90;;;;;;5092955;28;20024;-81
2021/08/12 02:57:47;;;;;;;51.45;31.50;;;12.50;99.90;;;;;;5093184;28;20081;-81
2021/08/12 03:00:13;;;;;;;61.90;33.20;;;12.50;99.90;;;;;;5093050;28;20071;-81
2021/08/12 03:02:45;;;;;;;50.15;30.45;;;12.50;99.90;;;;;;5092463;28;20399;-81
2021/08/12 03:05:13;;;;;;;51.45;31.77;;;12.50;99.90;;;;;;5092812;28;20091;-81
2021/08/12 03:07:40;;;;;;;53.45;30.50;;;12.50;99.90;;;;;;5093115;28;20073;-81
2021/08/12 03:10:06;;;;;;;51.33;30.95;;;12.50;99.90;;;;;;5094017;28;20055;-81
2021/08/12 03:12:32;;;;;;;42.97;28.50;;;12.60;99.90;;;;;;5092875;28;20027;-81
2021/08/12 03:14:58;;;;;;;57.58;33.78;;;12.60;99.90;;;;;;5093723;28;20028;-82
2021/08/12 03:17:24;;;;;;;45.40;27.27;;;12.70;99.90;;;;;;5093008;28;20032;-81
2021/08/12 03:19:50;;;;;;;41.67;26.27;;;12.70;99.90;;;;;;5093654;28;20110;-81
2021/08/12 03:22:16;;;;;;;43.03;25.60;;;12.60;99.90;;;;;;5092684;28;20478;-81
2021/08/12 03:24:44;;;;;;;36.20;23.95;;;12.70;99.90;;;;;;5092397;28;20076;-81
2021/08/12 03:27:11;;;;;;;35.17;23.02;;;12.70;99.90;;;;;;5092635;28;20043;-82
2021/08/12 03:29:39;;;;;;;39.00;24.00;;;12.60;99.90;;;;;;5092396;28;20055;-81
2021/08/12 03:32:05;;;;;;;33.50;22.38;;;12.60;99.90;;;;;;5092220;28;20035;-81
2021/08/12 03:34:30;;;;;;;34.08;21.98;;;12.60;99.90;;;;;;5092041;28;20070;-82
2021/08/12 03:36:56;;;;;;;31.00;21.63;;;12.50;99.90;;;;;;5093641;28;20027;-82
2021/08/12 03:39:21;;;;;;;40.47;22.77;;;12.50;99.90;;;;;;5092304;28;20024;-82
2021/08/12 03:41:47;;;;;;;36.08;22.65;;;12.50;99.90;;;;;;5092067;28;20459;-81
2021/08/12 03:44:12;;;;;;;31.98;20.58;;;12.50;99.90;;;;;;5091911;28;20024;-81
2021/08/12 03:46:38;;;;;;;36.13;24.30;;;12.40;99.90;;;;;;5092217;28;20533;-81
2021/08/12 03:49:05;;;;;;;36.90;22.98;;;12.40;99.90;;;;;;5092166;28;20024;-82
2021/08/12 03:51:30;;;;;;;35.80;23.08;;;12.40;99.90;;;;;;5082172;28;20024;-82
2021/08/12 03:53:57;;;;;;;40.75;24.15;;;12.40;99.90;;;;;;5071634;28;20111;-82
2021/08/12 03:56:23;;;;;;;34.53;22.67;;;12.40;99.90;;;;;;5071773;28;20055;-82
2021/08/12 03:58:48;;;;;;;38.33;22.65;;;12.50;99.90;;;;;;5071654;28;20055;-82
2021/08/12 04:01:14;;;;;;;39.53;23.23;;;12.40;99.90;;;;;;5076152;28;20023;-82
2021/08/12 04:03:39;;;;;;;41.47;26.05;;;12.40;99.90;;;;;;5091735;28;20028;-81
2021/08/12 04:06:05;;;;;;;45.17;27.23;;;12.40;99.90;;;;;;5091628;28;20480;-81
2021/08/12 04:08:34;;;;;;;52.38;31.27;;;12.40;99.90;;;;;;5091799;28;20476;-81
2021/08/12 04:11:00;;;;;;;62.45;35.58;;;12.50;99.90;;;;;;5091741;28;20107;-81
2021/08/12 04:13:26;;;;;;;65.40;36.45;;;12.60;99.90;;;;;;5092704;28;20142;-81
2021/08/12 04:15:55;;;;;;;68.25;36.92;;;12.70;99.90;;;;;;5091617;28;20051;-81
2021/08/12 04:18:24;;;;;;;81.05;40.08;;;12.80;99.90;;;;;;5091661;28;20036;-81
2021/08/12 04:20:53;;;;;;;68.32;36.90;;;12.90;99.90;;;;;;5091433;28;20073;-81
2021/08/12 04:23:21;;;;;;;66.55;37.58;;;12.90;99.90;;;;;;5091113;28;20024;-82
2021/08/12 04:25:47;;;;;;;68.22;37.30;;;12.90;99.90;;;;;;5092097;28;20027;-81
2021/08/12 04:28:12;;;;;;;63.83;36.15;;;13.00;99.90;;;;;;5091466;28;20044;-81
2021/08/12 04:30:38;;;;;;;66.95;36.22;;;13.00;99.90;;;;;;5091441;28;20545;-82
2021/08/12 04:33:04;;;;;;;57.47;29.85;;;13.00;99.90;;;;;;5091318;28;20047;-82
2021/08/12 04:35:29;;;;;;;55.97;31.30;;;13.00;99.90;;;;;;5090476;28;20031;-81
2021/08/12 04:37:55;;;;;;;50.10;27.88;;;13.00;99.90;;;;;;5092533;28;20024;-81
2021/08/12 04:40:22;;;;;;;46.40;25.77;;;12.90;99.90;;;;;;5091070;28;20055;-81
2021/08/12 04:42:50;;;;;;;59.22;30.25;;;13.00;99.90;;;;;;5090924;28;20028;-82
2021/08/12 04:45:20;;;;;;;65.15;33.22;;;12.90;99.90;;;;;;5090429;28;20032;-81
2021/08/12 04:47:46;;;;;;;63.20;36.13;;;13.00;99.90;;;;;;5091123;28;20031;-82
2021/08/12 04:50:12;;;;;;;70.43;34.70;;;13.00;99.90;;;;;;5092513;28;20028;-81
2021/08/12 04:52:39;;;;;;;51.50;30.35;;;13.00;99.90;;;;;;5090376;28;20024;-81
2021/08/12 04:55:09;;;;;;;57.10;32.53;;;13.00;99.90;;;;;;5090593;28;20024;-81
2021/08/12 04:57:34;;;;;;;60.38;33.38;;;13.10;99.90;;;;;;5090937;28;20027;-81
2021/08/12 05:00:00;;;;;;;52.83;31.98;;;13.10;99.90;;;;;;5090828;28;20127;-81
2021/08/12 05:02:36;;;;;;;63.65;36.38;;;13.10;99.90;;;;;;5092195;28;20391;-82
2021/08/12 05:05:09;;;;;;;78.03;40.53;;;13.20;99.90;;;;;;5090278;28;20491;-82
2021/08/12 05:07:40;;;;;;;79.18;42.67;;;13.20;99.90;;;;;;5090872;28;20498;-81
2021/08/12 05:10:06;;;;;;;67.80;37.13;;;13.30;99.90;;;;;;5092117;28;20028;-81
2021/08/12 05:12:32;;;;;;;71.07;38.17;;;13.40;99.90;;;;;;5090756;28;20115;-82
2021/08/12 05:15:00;;;;;;;77.93;41.88;;;13.50;99.90;;;;;;5091385;28;20111;-81
2021/08/12 05:17:26;;;;;;;70.90;37.60;;;13.60;99.90;;;;;;5090867;28;20063;-81
2021/08/12 05:19:59;;;;;;;81.40;43.35;;;13.70;99.90;;;;;;5090336;28;20119;-81
2021/08/12 05:22:25;;;;;;;84.60;45.97;;;13.80;99.90;;;;;;5092015;28;20116;-82
2021/08/12 05:24:53;;;;;;;84.03;42.22;;;14.00;99.90;;;;;;5090003;28;20086;-82
2021/08/12 05:27:21;;;;;;;90.50;48.17;;;14.10;99.90;;;;;;5090649;28;20020;-81
2021/08/12 05:29:46;;;;;;;90.80;48.70;;;14.30;99.90;;;;;;5090538;28;20495;-82
2021/08/12 05:32:12;;;;;;;94.07;47.90;;;14.40;99.90;;;;;;5091871;28;20028;-82
2021/08/12 05:34:38;;;;;;;71.65;40.25;;;14.60;99.90;;;;;;5089483;28;20419;-82
2021/08/12 05:37:03;;;;;;;69.43;42.65;;;14.70;99.90;;;;;;5091806;28;20087;-81
2021/08/12 05:39:32;;;;;;;78.93;42.95;;;14.70;99.90;;;;;;5090304;28;20114;-82
2021/08/12 05:41:58;;;;;;;80.25;43.53;;;14.80;99.90;;;;;;5091666;28;20027;-81
2021/08/12 05:44:27;;;;;;;74.18;39.88;;;14.90;99.90;;;;;;5089768;28;20020;-81
2021/08/12 05:46:56;;;;;;;62.58;37.20;;;14.90;99.90;;;;;;5089647;28;20052;-81
2021/08/12 05:49:25;;;;;;;72.75;39.10;;;15.00;99.90;;;;;;5090026;28;20488;-81
2021/08/12 05:51:56;;;;;;;59.45;35.90;;;15.00;99.90;;;;;;5090331;28;20118;-82
2021/08/12 05:54:24;;;;;;;59.47;35.00;;;15.10;99.90;;;;;;5091378;28;20051;-81
2021/08/12 05:56:50;;;;;;;57.63;33.20;;;15.10;99.90;;;;;;5091344;28;20549;-81
2021/08/12 05:59:24;;;;;;;53.40;32.72;;;15.00;99.90;;;;;;5090101;28;20020;-81
2021/08/12 06:01:59;;;;;;;55.05;31.35;;;15.00;99.90;;;;;;5088999;28;20036;-81
2021/08/12 06:04:24;;;;;;;44.47;29.40;;;15.00;99.90;;;;;;5091529;28;20028;-81
2021/08/12 06:06:50;;;;;;;43.55;29.13;;;15.00;99.90;;;;;;5095378;28;20502;-81
2021/08/12 06:09:21;;;;;;;39.03;24.27;;;15.10;99.90;;;;;;5093354;28;20036;-81
2021/08/12 06:11:47;;;;;;;42.42;26.92;;;15.10;99.90;;;;;;5095382;28;20024;-82
2021/08/12 06:14:15;;;;;;;47.38;27.65;;;15.30;99.90;;;;;;5093604;28;20047;-81
2021/08/12 06:16:41;;;;;;;51.63;29.80;;;15.40;99.90;;;;;;5093903;28;20020;-83
2021/08/12 06:19:06;;;;;;;41.95;26.52;;;15.40;99.90;;;;;;5094855;28;20502;-84
2021/08/12 06:21:32;;;;;;;40.50;28.25;;;15.70;99.90;;;;;;5093703;28;20399;-83
2021/08/12 06:23:57;;;;;;;49.72;31.38;;;15.90;99.90;;;;;;5082140;28;20028;-84
2021/08/12 06:26:24;;;;;;;51.25;32.17;;;15.90;99.90;;;;;;5091167;28;20028;-85
2021/08/12 06:28:50;;;;;;;42.70;28.67;;;16.10;99.90;;;;;;5088480;28;20024;-86
2021/08/12 06:31:16;;;;;;;42.90;29.75;;;16.20;99.90;;;;;;5089464;28;20368;-83
2021/08/12 06:33:46;;;;;;;43.10;30.85;;;16.50;99.90;;;;;;5089406;28;20139;-85
2021/08/12 06:36:12;;;;;;;44.95;30.40;;;16.60;99.90;;;;;;5088313;28;20036;-84
2021/08/12 06:38:37;;;;;;;50.03;28.30;;;16.80;99.90;;;;;;5088595;28;20027;-85
2021/08/12 06:41:03;;;;;;;32.38;23.85;;;16.70;99.90;;;;;;5089947;28;20035;-85
2021/08/12 06:43:29;;;;;;;34.10;25.63;;;16.80;99.90;;;;;;5090593;28;20162;-84
2021/08/12 06:45:54;;;;;;;39.63;26.52;;;16.70;99.90;;;;;;5089479;28;20016;-85
2021/08/12 06:48:20;;;;;;;34.45;24.75;;;17.00;99.90;;;;;;5089748;28;20024;-83
2021/08/12 06:50:45;;;;;;;32.88;23.55;;;17.20;99.90;;;;;;5088376;28;20032;-83
2021/08/12 06:53:11;;;;;;;33.22;23.63;;;17.20;99.90;;;;;;5091488;28;20036;-84
2021/08/12 06:55:37;;;;;;;30.40;23.10;;;17.30;99.90;;;;;;5089556;28;20026;-85
2021/08/12 06:58:03;;;;;;;26.63;20.38;;;17.30;99.90;;;;;;5086483;28;20171;-85
2021/08/12 07:00:39;;;;;;;32.67;23.38;;;17.60;99.90;;;;;;5090196;28;20130;-85
2021/08/12 07:03:05;;;;;;;32.38;22.95;;;17.80;99.90;;;;;;5090152;28;20365;-83
2021/08/12 07:05:33;;;;;;;33.50;23.67;;;18.10;99.90;;;;;;5089789;28;20023;-85
2021/08/12 07:08:02;;;;;;;29.65;21.17;;;18.10;99.90;;;;;;5091310;28;20500;-85
2021/08/12 07:10:39;;;;;;;23.10;16.85;;;18.30;99.90;;;;;;5090396;28;20073;-83
2021/08/12 07:13:05;;;;;;;31.55;20.48;;;18.60;99.90;;;;;;5090016;28;20495;-86
2021/08/12 07:15:31;;;;;;;23.13;17.25;;;18.80;99.90;;;;;;5092340;28;20115;-86
2021/08/12 07:18:03;;;;;;;28.98;17.35;;;19.00;99.90;;;;;;5092779;28;20480;-86
2021/08/12 07:20:48;;;;;;;26.80;18.25;;;19.20;99.90;;;;;;5093737;28;20471;-85
2021/08/12 07:23:31;;;;;;;22.08;16.05;;;19.30;99.90;;;;;;5092574;28;20020;-85
2021/08/12 07:26:09;;;;;;;24.30;16.98;;;19.50;99.90;;;;;;5092442;28;20027;-85
2021/08/12 07:28:35;;;;;;;18.13;14.70;;;19.50;99.90;;;;;;5092752;28;20028;-86
2021/08/12 07:31:09;;;;;;;20.50;13.95;;;19.80;99.90;;;;;;5092200;28;20028;-85
2021/08/12 07:33:40;;;;;;;17.73;11.82;;;20.00;99.90;;;;;;5092780;28;20119;-86
2021/08/12 07:36:06;;;;;;;21.58;13.13;;;20.20;99.90;;;;;;5091819;28;20028;-84
2021/08/12 07:38:33;;;;;;;15.85;12.85;;;20.50;99.90;;;;;;5091032;28;20474;-83
2021/08/12 07:40:59;;;;;;;17.73;13.23;;;20.30;99.90;;;;;;5091769;28;20024;-83
2021/08/12 07:43:26;;;;;;;20.55;12.95;;;20.40;99.90;;;;;;5092381;28;20588;-83
2021/08/12 07:45:52;;;;;;;18.98;11.90;;;20.70;99.90;;;;;;5093168;28;20024;-84
2021/08/12 07:48:18;;;;;;;21.25;13.50;;;20.80;99.90;;;;;;5092210;28;20023;-84
2021/08/12 07:50:43;;;;;;;23.15;12.82;;;21.00;99.90;;;;;;5092109;28;20028;-82
2021/08/12 07:53:10;;;;;;;21.42;12.85;;;21.10;99.90;;;;;;5090733;28;20023;-81
2021/08/12 07:55:35;;;;;;;23.20;12.77;;;21.10;99.90;;;;;;5091630;28;20089;-82
2021/08/12 07:58:02;;;;;;;23.80;12.52;;;21.30;99.90;;;;;;5092036;28;20027;-82
2021/08/12 08:00:28;;;;;;;19.10;12.27;;;21.50;99.90;;;;;;5091369;28;20028;-83
2021/08/12 08:02:53;;;;;;;19.65;11.55;;;21.60;99.90;;;;;;5091506;28;20020;-82
2021/08/12 08:05:21;;;;;;;15.32;11.30;;;21.90;99.90;;;;;;5091657;28;20069;-82
2021/08/12 08:07:49;;;;;;;17.85;11.88;;;21.60;99.90;;;;;;5091920;28;20098;-84
2021/08/12 08:10:16;;;;;;;15.07;11.00;;;21.80;99.90;;;;;;5091466;28;20368;-83
2021/08/12 08:12:49;;;;;;;14.40;10.10;;;22.00;99.90;;;;;;5091839;28;20070;-83
2021/08/12 08:15:17;;;;;;;14.00;9.80;;;22.10;99.90;;;;;;5091397;28;20115;-83
2021/08/12 08:17:43;;;;;;;14.25;9.73;;;22.20;99.90;;;;;;5091714;28;20395;-81
2021/08/12 08:20:10;;;;;;;12.70;8.82;;;22.40;99.90;;;;;;5092615;28;20077;-81
2021/08/12 08:22:37;;;;;;;17.40;7.65;;;22.50;99.90;;;;;;5092905;28;20107;-80
2021/08/12 08:25:03;;;;;;;12.10;7.20;;;22.80;99.90;;;;;;5092514;28;20020;-81
2021/08/12 08:27:29;;;;;;;9.98;7.40;;;23.00;99.90;;;;;;5090853;28;20047;-81
2021/08/12 08:29:54;;;;;;;14.52;7.70;;;23.10;99.90;;;;;;5091405;28;20468;-80
2021/08/12 08:32:20;;;;;;;16.10;7.63;;;23.20;99.90;;;;;;5092110;28;20027;-81
2021/08/12 08:34:46;;;;;;;8.63;6.30;;;23.30;99.90;;;;;;5091042;28;20488;-81
2021/08/12 08:37:13;;;;;;;17.27;8.38;;;23.40;99.90;;;;;;5078654;28;20043;-79
2021/08/12 08:39:39;;;;;;;11.98;7.85;;;23.40;99.90;;;;;;5086961;28;20114;-79
2021/08/12 08:42:06;;;;;;;12.05;8.30;;;23.50;99.90;;;;;;5087214;28;20182;-80
2021/08/12 08:44:37;;;;;;;9.80;7.18;;;23.40;99.90;;;;;;5086574;28;20016;-83
2021/08/12 08:47:07;;;;;;;10.23;7.20;;;23.60;99.90;;;;;;5088697;28;20558;-82
2021/08/12 08:49:37;;;;;;;16.83;7.20;;;23.80;99.90;;;;;;5087674;28;20027;-81
2021/08/12 08:52:04;;;;;;;9.43;7.05;;;23.90;99.90;;;;;;5086573;28;20466;-82
2021/08/12 08:54:31;;;;;;;13.07;7.20;;;23.80;99.90;;;;;;5088630;28;20058;-81
2021/08/12 08:56:58;;;;;;;12.68;7.15;;;24.10;99.90;;;;;;5085678;28;20036;-81
2021/08/12 08:59:25;;;;;;;9.18;7.10;;;24.10;99.90;;;;;;5087322;28;21308;-81
2021/08/12 09:01:50;;;;;;;11.25;7.25;;;24.10;99.90;;;;;;5086693;28;20024;-81
2021/08/12 09:04:16;;;;;;;9.25;6.45;;;24.50;99.90;;;;;;5088430;28;20360;-80
2021/08/12 09:06:42;;;;;;;14.50;8.05;;;24.80;99.90;;;;;;5087071;28;20476;-81
2021/08/12 09:09:09;;;;;;;13.70;7.68;;;25.10;99.90;;;;;;5088496;28;20047;-80
2021/08/12 09:11:35;;;;;;;16.23;8.63;;;24.90;99.90;;;;;;5088373;28;20036;-81
2021/08/12 09:14:40;;;;;;;12.20;8.32;;;24.90;99.90;;;;;;5088337;28;20549;-82
2021/08/12 09:17:17;;;;;;;9.70;7.82;;;25.10;99.90;;;;;;5086813;28;20032;-83
2021/08/12 09:20:06;;;;;;;9.32;8.35;;;24.70;99.90;;;;;;5087064;28;20031;-82
2021/08/12 09:22:54;;;;;;;30.00;9.90;;;24.80;99.90;;;;;;5088065;28;20027;-83
2021/08/12 09:25:31;;;;;;;13.35;9.25;;;24.80;99.90;;;;;;5079987;28;20519;-81
2021/08/12 09:28:16;;;;;;;15.65;9.90;;;24.80;99.90;;;;;;5086799;28;20075;-82
2021/08/12 09:31:02;;;;;;;12.32;9.70;;;24.90;99.90;;;;;;5087116;28;20388;-81
2021/08/12 09:33:42;;;;;;;12.60;9.50;;;25.00;99.90;;;;;;5085596;28;20634;-82
2021/08/12 09:36:24;;;;;;;14.90;9.38;;;25.10;99.90;;;;;;5087340;28;20035;-81
2021/08/12 09:39:18;;;;;;;16.40;10.23;;;25.30;99.90;;;;;;5087699;28;20427;-82
2021/08/12 09:41:50;;;;;;;14.57;9.20;;;25.30;99.90;;;;;;5092495;28;20030;-84
2021/08/12 09:44:35;;;;;;;21.05;11.10;;;25.30;99.90;;;;;;5090865;28;20392;-84
2021/08/12 09:47:06;;;;;;;15.55;10.82;;;25.40;99.90;;;;;;5092037;28;20035;-82
2021/08/12 09:49:50;;;;;;;16.17;10.18;;;25.10;99.90;;;;;;5091099;28;20046;-82
2021/08/12 09:52:15;;;;;;;17.20;11.77;;;24.80;99.90;;;;;;5090358;28;20016;-84
2021/08/12 09:54:41;;;;;;;16.17;9.98;;;24.80;99.90;;;;;;5092637;28;20024;-81
2021/08/12 09:57:17;;;;;;;18.27;11.68;;;25.10;99.90;;;;;;5089495;28;20020;-81
2021/08/12 09:59:47;;;;;;;17.02;11.70;;;25.30;99.90;;;;;;5095121;28;20024;-81
2021/08/12 10:02:13;;;;;;;17.50;11.88;;;25.20;99.90;;;;;;5093589;28;20365;-80
2021/08/12 10:04:39;;;;;;;16.90;9.65;;;25.10;99.90;;;;;;5093880;28;20024;-80
2021/08/12 10:07:04;;;;;;;19.58;9.18;;;24.60;99.90;;;;;;5094081;28;20046;-81
2021/08/12 10:09:40;;;;;;;16.92;11.63;;;24.60;99.90;;;;;;5094160;28;20020;-81
2021/08/12 10:12:07;;;;;;;14.25;10.30;;;24.50;99.90;;;;;;5095411;28;20099;-80
2021/08/12 10:14:33;;;;;;;12.30;8.93;;;24.50;99.90;;;;;;5093537;28;20432;-81
2021/08/12 10:16:59;;;;;;;16.92;9.20;;;24.30;99.90;;;;;;5094039;28;20059;-80
2021/08/12 10:19:25;;;;;;;13.18;8.70;;;24.40;99.90;;;;;;5094605;28;20373;-81
2021/08/12 10:21:51;;;;;;;17.38;10.30;;;24.60;99.90;;;;;;5095229;28;20028;-81
2021/08/12 10:24:18;;;;;;;13.23;9.10;;;24.60;99.90;;;;;;5094764;28;20499;-80
2021/08/12 10:26:46;;;;;;;13.32;8.00;;;24.70;99.90;;;;;;5093845;28;20013;-80
2021/08/12 10:29:17;;;;;;;14.85;7.50;;;24.50;99.90;;;;;;5095036;28;20371;-81
2021/08/12 10:31:45;;;;;;;9.05;7.40;;;25.00;99.90;;;;;;5095088;28;20032;-81
2021/08/12 10:34:12;;;;;;;10.15;7.50;;;25.40;99.90;;;;;;5093369;28;20098;-80
2021/08/12 10:36:39;;;;;;;10.32;7.65;;;25.40;99.90;;;;;;5093399;28;20034;-82
2021/08/12 10:39:06;;;;;;;11.10;7.68;;;25.60;99.90;;;;;;5092963;28;20031;-80
2021/08/12 10:41:35;;;;;;;11.63;7.72;;;25.80;99.90;;;;;;5093548;28;20024;-78
2021/08/12 10:44:01;;;;;;;12.07;6.28;;;25.20;99.90;;;;;;5094577;28;20023;-80
2021/08/12 10:46:38;;;;;;;11.02;7.55;;;25.20;99.90;;;;;;5094638;28;20380;-80
2021/08/12 10:49:25;;;;;;;11.52;7.25;;;25.30;99.90;;;;;;5093004;28;20024;-80
2021/08/12 10:52:09;;;;;;;11.63;6.45;;;25.40;99.90;;;;;;5092786;28;20031;-80
2021/08/12 10:54:40;;;;;;;9.55;6.55;;;25.50;99.90;;;;;;5093050;28;20499;-80
2021/08/12 10:57:21;;;;;;;8.48;5.68;;;25.10;99.90;;;;;;5093218;28;20536;-80
2021/08/12 10:59:49;;;;;;;11.32;6.53;;;25.00;99.90;;;;;;5092764;28;20070;-80
2021/08/12 11:02:27;;;;;;;13.52;5.93;;;25.30;99.90;;;;;;5093034;28;20020;-83
2021/08/12 11:04:55;;;;;;;9.68;5.68;;;25.30;99.90;;;;;;5094073;28;20095;-83
2021/08/12 11:07:35;;;;;;;11.38;6.22;;;25.50;99.90;;;;;;5093032;28;20457;-84
2021/08/12 11:10:05;;;;;;;11.23;6.63;;;25.40;99.90;;;;;;5092554;28;20024;-83
2021/08/12 11:12:52;;;;;;;9.07;5.65;;;25.30;99.90;;;;;;5092885;28;20122;-84
2021/08/12 11:15:38;;;;;;;7.65;6.45;;;25.30;99.90;;;;;;5093998;28;20054;-81
2021/08/12 11:18:06;;;;;;;9.13;5.43;;;25.40;99.90;;;;;;5072354;28;20123;-82
2021/08/12 11:20:35;;;;;;;9.05;6.50;;;25.80;99.90;;;;;;5088836;28;20024;-83
2021/08/12 11:23:19;;;;;;;11.05;5.90;;;25.50;99.90;;;;;;5087918;28;20055;-82
2021/08/12 11:26:07;;;;;;;8.80;6.13;;;25.50;99.90;;;;;;5072190;28;20047;-83
2021/08/12 11:29:02;;;;;;;9.95;6.63;;;25.30;99.90;;;;;;5072311;28;20028;-84
2021/08/12 11:31:36;;;;;;;14.95;8.93;;;25.00;99.90;;;;;;5072787;28;20082;-84
2021/08/12 11:34:47;;;;;;;;;;;;;;;;;;;;;
2021/08/12 11:37:23;;;;;;;11.57;8.60;;;24.20;99.90;;;;;;5073582;28;20028;-85
2021/08/12 11:40:50;;;;;;;18.55;9.73;;;24.20;99.90;;;;;;5072084;28;20124;-84
2021/08/12 11:43:16;;;;;;;12.27;8.70;;;24.20;99.90;;;;;;5072024;28;20484;-83
2021/08/12 11:45:44;;;;;;;13.07;9.88;;;24.50;99.90;;;;;;5080626;28;20039;-83
2021/08/12 11:48:31;;;;;;;11.77;9.35;;;24.60;99.90;;;;;;5091981;28;20039;-83
2021/08/12 11:51:03;;;;;;;17.83;9.90;;;25.00;99.90;;;;;;5092190;28;20407;-83
2021/08/12 11:53:53;;;;;;;18.03;9.00;;;25.40;99.90;;;;;;5092163;28;20114;-83
2021/08/12 11:56:29;;;;;;;10.93;7.57;;;25.80;99.90;;;;;;5092961;28;20752;-84
2021/08/12 11:58:59;;;;;;;14.70;9.57;;;25.90;99.90;;;;;;5092107;28;20403;-84
2021/08/12 12:01:36;;;;;;;19.27;8.55;;;25.80;99.90;;;;;;5091855;28;20506;-84
2021/08/12 12:04:13;;;;;;;17.60;8.43;;;25.80;99.90;;;;;;5090998;28;20056;-82
2021/08/12 12:06:53;;;;;;;15.07;8.48;;;25.70;99.90;;;;;;5091376;28;20115;-84
2021/08/12 12:09:23;;;;;;;11.55;8.65;;;25.80;99.90;;;;;;5091983;28;20024;-84
2021/08/12 12:12:23;;;;;;;13.90;8.88;;;26.00;99.90;;;;;;5091849;28;20024;-81
2021/08/12 12:14:55;;;;;;;11.98;7.80;;;26.20;99.90;;;;;;5091562;28;20024;-83
2021/08/12 12:17:23;;;;;;;13.88;7.70;;;26.60;99.90;;;;;;5091496;28;20035;-83
2021/08/12 12:20:15;;;;;;;13.13;8.00;;;26.40;99.90;;;;;;5091545;28;20044;-84
2021/08/12 12:22:58;;;;;;;10.07;7.30;;;26.40;99.90;;;;;;5081818;28;20878;-81
2021/08/12 12:25:35;;;;;;;12.23;7.55;;;26.60;99.90;;;;;;5073432;28;20028;-81
2021/08/12 12:28:02;;;;;;;17.67;7.80;;;26.90;99.90;;;;;;5089086;28;20107;-80
2021/08/12 12:30:37;;;;;;;11.48;6.85;;;27.10;99.90;;;;;;5083746;28;20040;-80
2021/08/12 12:33:08;;;;;;;12.25;7.03;;;27.60;99.90;;;;;;5088817;28;20436;-81
2021/08/12 12:35:37;;;;;;;13.73;7.63;;;27.10;99.90;;;;;;5088377;28;20452;-81
2021/08/12 12:38:14;;;;;;;10.55;6.75;;;27.60;99.90;;;;;;5087963;28;20039;-80
2021/08/12 12:41:18;;;;;;;13.82;7.07;;;27.60;99.90;;;;;;5087745;28;20499;-80
2021/08/12 12:44:16;;;;;;;11.32;6.38;;;27.70;99.90;;;;;;5083215;28;20028;-83
2021/08/12 12:46:56;;;;;;;10.63;7.13;;;28.90;99.90;;;;;;5087709;28;20076;-82